Time;durP1;ratioP1;P1;durP2;ratioP2;P2;SDS_P1;SDS_P2;PMS_P1;PMS_P2;Temp;Humidity;BMP_temperature;BMP_pressure;BME280_temperature;BME280_humidity;BME280_pressure;Samples;Min_cycle;Max_cycle;Signal;HPM_P1;HPM_P2
2020/12/01 00:01:50;;;;;;;52.15;23.57;;;;;;;0.70;81.49;101068.33;1790316;78;25807;-77
2020/12/01 00:04:22;;;;;;;54.42;23.75;;;;;;;0.65;81.45;101067.44;1847682;75;28458;-75
2020/12/01 00:06:51;;;;;;;49.70;22.75;;;;;;;0.60;81.50;101060.82;1855845;75;25785;-75
2020/12/01 00:09:19;;;;;;;44.40;21.68;;;;;;;0.58;81.46;101065.65;1848208;75;25881;-76
2020/12/01 00:11:47;;;;;;;41.23;19.92;;;;;;;0.54;81.44;101070.47;1839900;75;25891;-77
2020/12/01 00:14:14;;;;;;;41.40;19.48;;;;;;;0.49;81.40;101063.85;1826876;75;25861;-76
2020/12/01 00:16:45;;;;;;;46.73;20.25;;;;;;;0.39;81.41;101055.89;1826529;76;27776;-76
2020/12/01 00:19:14;;;;;;;42.25;19.25;;;;;;;0.40;81.39;101062.50;1841222;75;25884;-75
2020/12/01 00:21:45;;;;;;;45.38;20.20;;;;;;;0.35;81.39;101062.03;1845664;76;25848;-75
2020/12/01 00:24:13;;;;;;;44.60;19.57;;;;;;;0.31;81.42;101059.81;1872039;75;25860;-75
2020/12/01 00:26:43;;;;;;;39.53;18.52;;;;;;;0.26;81.38;101054.52;1841052;75;25740;-74
2020/12/01 00:29:11;;;;;;;46.83;20.97;;;;;;;0.23;81.39;101056.26;1832191;75;27409;-74
2020/12/01 00:31:41;;;;;;;40.88;18.87;;;;;;;0.17;81.37;101050.52;1838342;75;26062;-75
2020/12/01 00:34:11;;;;;;;41.60;19.32;;;;;;;0.14;81.35;101046.98;1838864;75;25843;-75
2020/12/01 00:36:40;;;;;;;44.70;19.07;;;;;;;0.10;81.38;101053.98;1829422;77;26168;-75
2020/12/01 00:39:10;;;;;;;42.80;19.35;;;;;;;0.08;81.38;101046.95;1828868;75;25711;-75
2020/12/01 00:41:38;;;;;;;47.08;19.25;;;;;;;0.06;81.36;101050.89;1834244;76;27333;-75
2020/12/01 00:44:06;;;;;;;43.70;18.32;;;;;;;0.06;81.38;101050.01;1827967;75;25798;-74
2020/12/01 00:46:34;;;;;;;40.60;18.77;;;;;;;0.04;81.38;101056.59;1825257;75;26505;-74
2020/12/01 00:49:01;;;;;;;39.58;19.17;;;;;;;0.02;81.39;101050.86;1830746;77;26083;-75
2020/12/01 00:51:29;;;;;;;40.48;19.12;;;;;;;0.02;81.40;101054.81;1829475;75;25785;-74
2020/12/01 00:53:57;;;;;;;44.33;19.50;;;;;;;0.01;81.40;101048.67;1821384;77;28353;-74
2020/12/01 00:56:26;;;;;;;44.18;19.45;;;;;;;0.03;81.41;101042.09;1802586;75;25882;-77
2020/12/01 00:58:54;;;;;;;48.58;19.90;;;;;;;0.02;81.39;101045.16;1821260;75;25959;-76
2020/12/01 01:01:26;;;;;;;45.30;20.57;;;;;;;0.00;81.37;101046.47;1817336;75;26413;-74
2020/12/01 01:03:54;;;;;;;41.48;18.85;;;;;;;0.01;81.38;101039.44;1820181;75;25772;-74
2020/12/01 01:06:26;;;;;;;41.75;18.48;;;;;;;0.01;81.37;101038.13;1816469;75;26241;-74
2020/12/01 01:08:54;;;;;;;45.65;20.30;;;;;;;0.02;81.42;101026.71;1820572;76;25767;-74
2020/12/01 01:11:32;;;;;;;47.45;19.82;;;;;;;0.04;81.42;101024.97;1822394;75;25834;-74
2020/12/01 01:14:00;;;;;;;49.70;21.05;;;;;;;0.04;81.39;101022.33;1813504;76;26610;-75
2020/12/01 01:16:27;;;;;;;37.55;18.67;;;;;;;0.05;81.39;101018.82;1820368;75;26157;-74
2020/12/01 01:18:55;;;;;;;45.20;21.12;;;;;;;0.06;81.38;101015.31;1824245;76;27898;-76
2020/12/01 01:21:26;;;;;;;43.52;19.42;;;;;;;0.06;81.41;101007.84;1820289;75;25910;-74
2020/12/01 01:23:53;;;;;;;44.00;19.05;;;;;;;0.08;81.43;101012.25;1818526;77;25898;-76
2020/12/01 01:26:21;;;;;;;37.60;18.65;;;;;;;0.08;81.40;101009.61;1817275;75;26339;-75
2020/12/01 01:28:49;;;;;;;44.30;20.85;;;;;;;0.08;81.42;100999.07;1819394;76;25998;-77
2020/12/01 01:31:19;;;;;;;42.00;19.90;;;;;;;0.08;81.41;100999.07;1800916;76;27422;-76
2020/12/01 01:33:46;;;;;;;43.42;20.35;;;;;;;0.11;81.45;100999.09;1822866;77;25872;-75
2020/12/01 01:36:16;;;;;;;44.48;21.20;;;;;;;0.11;81.41;100991.18;1795624;76;26639;-75
2020/12/01 01:38:44;;;;;;;48.63;23.20;;;;;;;0.12;81.42;100982.40;1822900;76;26370;-74
2020/12/01 01:41:12;;;;;;;48.00;22.82;;;;;;;0.14;81.41;100983.72;1808922;76;26069;-75
2020/12/01 01:43:40;;;;;;;50.28;23.85;;;;;;;0.13;81.39;100981.52;1796067;76;26177;-74
2020/12/01 01:46:33;;;;;;;47.55;22.65;;;;;;;0.12;81.42;100977.13;1794235;76;26034;-74
2020/12/01 01:49:07;;;;;;;46.13;22.65;;;;;;;0.14;81.42;100971.86;1814697;77;26678;-74
2020/12/01 01:51:37;;;;;;;40.45;19.77;;;;;;;0.16;81.42;100973.63;1800885;76;26044;-74
2020/12/01 01:54:06;;;;;;;44.57;21.53;;;;;;;0.16;81.40;100968.36;1790338;76;25407;-74
2020/12/01 01:56:38;;;;;;;46.68;21.70;;;;;;;0.17;81.40;100972.76;1800540;76;27418;-74
2020/12/01 01:59:07;;;;;;;46.48;20.20;;;;;;;0.19;81.44;100964.86;1807165;76;25894;-75
2020/12/01 02:01:35;;;;;;;45.83;20.90;;;;;;;0.22;81.42;100974.09;1809942;76;25983;-75
2020/12/01 02:04:09;;;;;;;45.50;20.52;;;;;;;0.22;81.43;100976.73;1793762;76;26412;-75
2020/12/01 02:06:42;;;;;;;39.88;18.52;;;;;;;0.20;81.42;100971.45;1816220;76;25885;-75
2020/12/01 02:09:23;;;;;;;46.25;20.97;;;;;;;0.21;81.45;100973.21;1805077;76;27505;-75
2020/12/01 02:11:51;;;;;;;43.80;19.42;;;;;;;0.22;81.44;100971.02;1794660;76;25942;-75
2020/12/01 02:14:25;;;;;;;44.60;20.90;;;;;;;0.21;81.44;100963.11;1813502;76;25845;-75
2020/12/01 02:16:58;;;;;;;41.98;19.17;;;;;;;0.21;81.43;100957.84;1800798;76;26679;-76
2020/12/01 02:19:29;;;;;;;43.48;18.87;;;;;;;0.24;81.44;100964.00;1793823;76;26053;-75
2020/12/01 02:21:58;;;;;;;40.05;18.10;;;;;;;0.25;81.48;100959.17;1798954;77;28381;-75
2020/12/01 02:24:27;;;;;;;43.17;19.60;;;;;;;0.27;81.43;100962.69;1796040;76;25860;-75
2020/12/01 02:26:59;;;;;;;44.88;20.48;;;;;;;0.26;81.40;100953.45;1840913;76;25765;-76
2020/12/01 02:29:32;;;;;;;39.48;18.67;;;;;;;0.25;81.42;100949.06;1849383;75;25895;-76
2020/12/01 02:32:01;;;;;;;43.25;19.45;;;;;;;0.27;81.44;100948.19;1821799;76;25813;-76
2020/12/01 02:34:39;;;;;;;43.40;19.50;;;;;;;0.28;81.44;100938.09;1847840;75;27302;-76
2020/12/01 02:37:14;;;;;;;51.55;22.15;;;;;;;0.30;81.44;100940.73;1836783;75;26556;-76
2020/12/01 02:39:42;;;;;;;45.25;20.70;;;;;;;0.30;81.44;100934.14;1825330;77;25994;-75
2020/12/01 02:42:22;;;;;;;42.35;19.00;;;;;;;0.30;81.47;100932.39;1842385;75;25827;-75
2020/12/01 02:44:56;;;;;;;41.83;18.70;;;;;;;0.30;81.44;100938.97;1801973;76;25833;-75
2020/12/01 02:47:25;;;;;;;48.25;20.00;;;;;;;0.32;81.44;100939.86;1800805;76;27618;-75
2020/12/01 02:49:54;;;;;;;47.20;21.30;;;;;;;0.34;81.49;100942.50;1802974;78;25754;-75
2020/12/01 02:52:23;;;;;;;40.28;18.27;;;;;;;0.37;81.46;100936.36;1796441;76;25922;-74
2020/12/01 02:54:51;;;;;;;46.37;20.48;;;;;;;0.37;81.46;100933.72;1814556;76;26597;-75
2020/12/01 02:57:19;;;;;;;41.42;19.95;;;;;;;0.37;81.42;100932.41;1803132;76;25899;-74
2020/12/01 02:59:47;;;;;;;42.95;20.23;;;;;;;0.38;81.45;100932.84;1805798;77;27834;-74
2020/12/01 03:02:15;;;;;;;47.03;20.65;;;;;;;0.38;81.44;100932.41;1818449;76;25778;-74
2020/12/01 03:04:43;;;;;;;39.40;19.32;;;;;;;0.38;81.44;100942.08;1828045;77;25852;-75
2020/12/01 03:07:10;;;;;;;46.13;19.52;;;;;;;0.40;81.50;100939.00;1846964;75;26002;-75
2020/12/01 03:09:39;;;;;;;42.03;18.98;;;;;;;0.42;81.44;100941.20;1837202;75;25951;-75
2020/12/01 03:12:08;;;;;;;41.42;18.65;;;;;;;0.42;81.45;100942.52;1829199;76;27758;-75
2020/12/01 03:14:36;;;;;;;41.90;19.52;;;;;;;0.41;81.40;100936.81;1828124;77;25942;-74
2020/12/01 03:17:04;;;;;;;41.80;19.42;;;;;;;0.41;81.43;100932.85;1826735;75;25927;-75
2020/12/01 03:19:32;;;;;;;43.55;19.80;;;;;;;0.41;81.43;100932.85;1813629;77;26850;-72
2020/12/01 03:22:02;;;;;;;46.33;20.68;;;;;;;0.41;81.44;100928.89;1826274;76;25962;-72
2020/12/01 03:24:29;;;;;;;41.45;20.10;;;;;;;0.42;81.40;100934.61;1831822;76;28010;-72
2020/12/01 03:26:57;;;;;;;40.28;19.85;;;;;;;0.40;81.40;100932.41;1816724;78;25366;-73
2020/12/01 03:29:25;;;;;;;43.33;20.10;;;;;;;0.41;81.43;100934.17;1834837;75;25788;-73
2020/12/01 03:31:52;;;;;;;42.55;20.30;;;;;;;0.41;81.45;100927.58;1812796;76;25844;-73
2020/12/01 03:34:20;;;;;;;42.93;20.32;;;;;;;0.43;81.45;100929.34;1832819;75;25790;-72
2020/12/01 03:36:48;;;;;;;42.45;19.37;;;;;;;0.45;81.42;100934.62;1845867;75;28579;-73
2020/12/01 03:39:16;;;;;;;49.48;20.05;;;;;;;0.47;81.47;100939.02;1837782;75;25804;-72
2020/12/01 03:41:43;;;;;;;38.05;19.02;;;;;;;0.48;81.41;100933.31;1834335;75;25798;-72
2020/12/01 03:44:11;;;;;;;48.42;18.30;;;;;;;0.49;81.40;100933.75;1834983;75;26086;-72
2020/12/01 03:46:41;;;;;;;42.23;18.77;;;;;;;0.50;81.43;100936.39;1826235;76;25865;-73
2020/12/01 03:49:08;;;;;;;41.75;18.60;;;;;;;0.51;81.42;100922.77;1836911;75;27414;-74
2020/12/01 03:51:36;;;;;;;44.23;19.57;;;;;;;0.50;81.38;100927.59;1835759;75;25878;-72
2020/12/01 03:54:04;;;;;;;44.63;19.92;;;;;;;0.49;81.37;100922.77;1842808;75;25736;-72
2020/12/01 03:56:32;;;;;;;41.35;19.17;;;;;;;0.46;81.37;100927.15;1813248;75;26488;-72
2020/12/01 03:59:00;;;;;;;46.08;18.52;;;;;;;0.48;81.39;100933.31;1846241;75;25783;-72
2020/12/01 04:01:29;;;;;;;44.33;19.07;;;;;;;0.46;81.36;100934.63;1826835;75;27724;-72
2020/12/01 04:03:57;;;;;;;42.80;18.98;;;;;;;0.49;81.44;100936.39;1820881;75;26505;-73
2020/12/01 04:06:25;;;;;;;43.00;18.85;;;;;;;0.51;81.42;100942.11;1820612;75;25773;-72
2020/12/01 04:08:52;;;;;;;43.00;17.40;;;;;;;0.52;81.36;100945.63;1829164;76;26104;-73
2020/12/01 04:11:20;;;;;;;44.00;19.10;;;;;;;0.50;81.34;100939.47;1838145;75;25874;-72
2020/12/01 04:13:48;;;;;;;39.25;18.50;;;;;;;0.48;81.32;100942.53;1830471;76;27746;-73
2020/12/01 04:16:15;;;;;;;44.70;19.65;;;;;;;0.47;81.34;100946.93;1840595;75;25759;-73
2020/12/01 04:18:43;;;;;;;40.85;19.05;;;;;;;0.46;81.38;100937.26;1827351;76;26406;-73
2020/12/01 04:21:11;;;;;;;38.33;17.42;;;;;;;0.49;81.38;100942.98;1827700;75;26033;-73
2020/12/01 04:23:39;;;;;;;39.23;17.50;;;;;;;0.51;81.38;100937.27;1848645;76;25774;-73
2020/12/01 04:26:07;;;;;;;41.15;19.57;;;;;;;0.51;81.35;100939.91;1838101;75;28349;-72
2020/12/01 04:28:34;;;;;;;41.35;19.77;;;;;;;0.51;81.35;100935.95;1853207;75;26086;-73
2020/12/01 04:31:02;;;;;;;39.40;18.77;;;;;;;0.52;81.36;100939.03;1840861;75;26462;-74
2020/12/01 04:33:30;;;;;;;38.05;18.42;;;;;;;0.53;81.32;100939.03;1842023;75;25858;-72
2020/12/01 04:35:58;;;;;;;46.48;19.12;;;;;;;0.54;81.39;100938.16;1842719;75;25775;-75
2020/12/01 04:38:25;;;;;;;45.78;19.73;;;;;;;0.57;81.41;100938.16;1827595;75;28357;-74
2020/12/01 04:40:55;;;;;;;43.02;18.48;;;;;;;0.58;81.35;100937.72;1826121;75;25826;-73
2020/12/01 04:43:40;;;;;;;47.88;20.45;;;;;;;0.59;81.37;100938.17;1816688;75;26672;-74
2020/12/01 04:46:12;;;;;;;51.95;21.65;;;;;;;0.61;81.37;100935.09;1768636;77;26195;-74
2020/12/01 04:48:55;;;;;;;48.17;19.98;;;;;;;0.59;81.28;100933.77;1839276;75;26576;-74
2020/12/01 04:51:58;;;;;;;44.95;20.52;;;;;;;0.58;81.28;100931.13;1828000;75;27374;-74
2020/12/01 04:55:07;;;;;;;46.23;19.80;;;;;;;0.57;81.33;100932.89;1837628;75;25695;-73
2020/12/01 04:58:15;;;;;;;40.78;17.95;;;;;;;0.59;81.35;100936.84;1812771;77;25738;-73
2020/12/01 05:00:54;;;;;;;37.42;19.57;;;;;;;0.59;81.30;100925.86;1794078;78;25776;-73
2020/12/01 05:03:36;;;;;;;45.43;19.75;;;;;;;0.59;81.36;100920.58;1800011;77;26511;-74
2020/12/01 05:06:36;;;;;;;42.43;18.77;;;;;;;0.60;81.35;100919.70;1796347;77;27444;-73
2020/12/01 05:09:18;;;;;;;42.70;20.02;;;;;;;0.62;81.35;100917.07;1797728;78;25810;-72
2020/12/01 05:11:50;;;;;;;;;;;;;;;0.60;81.29;100914.43;1823914;77;25807;-72
2020/12/01 05:14:35;;;;;;;47.50;19.67;;;;;;;0.61;81.29;100917.95;1791912;77;25975;-72
2020/12/01 05:17:33;;;;;;;41.00;18.10;;;;;;;0.58;81.30;100924.09;1798110;77;25858;-72
2020/12/01 05:20:01;;;;;;;43.58;18.73;;;;;;;0.58;81.29;100920.14;1817947;77;27857;-74
2020/12/01 05:22:31;;;;;;;44.60;19.10;;;;;;;0.57;81.27;100926.73;1830613;75;25908;-72
2020/12/01 05:24:59;;;;;;;43.17;19.52;;;;;;;0.52;81.28;100921.89;1821788;76;25804;-72
2020/12/01 05:27:34;;;;;;;48.17;20.32;;;;;;;0.54;81.25;100927.61;1823953;76;26206;-74
2020/12/01 05:30:21;;;;;;;51.28;22.22;;;;;;;0.57;81.31;100926.73;1821086;76;25869;-73
2020/12/01 05:33:00;;;;;;;45.92;20.48;;;;;;;0.59;81.30;100932.89;1832772;75;27908;-76
2020/12/01 05:35:32;;;;;;;45.63;20.60;;;;;;;0.57;81.28;100918.38;1784964;76;26098;-76
2020/12/01 05:38:14;;;;;;;54.55;23.42;;;;;;;0.58;81.27;100925.42;1805438;76;25719;-71
2020/12/01 05:40:56;;;;;;;48.33;21.42;;;;;;;0.58;81.28;100926.73;1801283;77;25882;-71
2020/12/01 05:43:38;;;;;;;44.63;19.87;;;;;;;0.59;81.30;100935.09;1809415;76;25802;-70
2020/12/01 05:46:35;;;;;;;44.38;20.88;;;;;;;0.61;81.25;100935.97;1830280;76;27427;-71
2020/12/01 05:49:35;;;;;;;47.10;21.55;;;;;;;0.58;81.24;100937.72;1780565;78;26260;-68
2020/12/01 05:52:20;;;;;;;48.08;20.52;;;;;;;0.56;81.24;100947.39;1776772;79;25922;-72
2020/12/01 05:55:05;;;;;;;41.68;20.60;;;;;;;0.57;81.24;100950.47;1794382;77;26115;-71
2020/12/01 05:57:33;;;;;;;48.05;20.88;;;;;;;0.51;81.14;100943.86;1805035;77;25786;-72
2020/12/01 06:00:15;;;;;;;49.25;22.48;;;;;;;0.48;81.16;100958.36;1799923;78;27763;-69
2020/12/01 06:03:29;;;;;;;48.40;22.93;;;;;;;0.43;81.14;100952.19;1805329;78;25811;-72
2020/12/01 06:06:00;;;;;;;45.50;19.42;;;;;;;0.40;81.17;100956.14;1795055;78;25790;-69
2020/12/01 06:08:36;;;;;;;47.50;20.12;;;;;;;0.35;81.13;100953.92;1800101;76;26038;-70
2020/12/01 06:11:38;;;;;;;48.78;21.20;;;;;;;0.28;81.10;100953.91;1795201;77;25719;-70
2020/12/01 06:14:26;;;;;;;47.03;19.12;;;;;;;0.24;81.13;100952.58;1788814;76;27895;-71
2020/12/01 06:17:18;;;;;;;45.00;19.57;;;;;;;0.19;81.11;100956.51;1788607;78;25810;-69
2020/12/01 06:19:57;;;;;;;45.10;19.67;;;;;;;0.15;81.10;100952.10;1806433;77;25886;-69
2020/12/01 06:23:05;;;;;;;45.28;21.02;;;;;;;0.10;81.09;100954.28;1797106;76;25991;-69
2020/12/01 06:25:53;;;;;;;44.45;19.80;;;;;;;0.07;81.14;100948.55;1821386;77;25734;-70
2020/12/01 06:28:45;;;;;;;49.53;21.23;;;;;;;0.04;81.13;100952.50;1810254;76;28003;-72
2020/12/01 06:31:49;;;;;;;46.70;19.87;;;;;;;0.02;81.12;100958.20;1805028;76;26585;-71
2020/12/01 06:35:06;;;;;;;54.67;21.93;;;;;;;0.00;81.11;100961.30;1816192;76;25837;-72
2020/12/01 06:38:14;;;;;;;51.30;20.85;;;;;;;0.01;81.14;100966.98;1793226;77;26086;-72
2020/12/01 06:41:03;;;;;;;51.23;22.25;;;;;;;0.00;81.16;100965.25;1806164;77;25436;-72
2020/12/01 06:43:38;;;;;;;50.00;20.77;;;;;;;0.02;81.18;100969.17;1807190;76;28448;-70
2020/12/01 06:46:39;;;;;;;46.08;20.90;;;;;;;0.02;81.15;100964.78;1804211;77;25813;-73
2020/12/01 06:49:11;;;;;;;57.15;20.62;;;;;;;0.03;81.10;100967.86;1784573;77;26001;-71
2020/12/01 06:51:39;;;;;;;56.75;23.20;;;;;;;0.02;81.12;100972.69;1834101;76;25949;-70
2020/12/01 06:54:12;;;;;;;61.68;25.43;;;;;;;0.01;81.11;100972.25;1796788;77;25967;-75
2020/12/01 06:56:40;;;;;;;57.60;24.77;;;;;;;0.03;81.13;100975.77;1801856;77;27930;-73
2020/12/01 06:59:12;;;;;;;62.62;26.40;;;;;;;0.07;81.16;100977.55;1795274;77;25416;-69
2020/12/01 07:01:41;;;;;;;53.70;23.12;;;;;;;0.08;81.09;100980.63;1795023;77;26901;-69
2020/12/01 07:04:20;;;;;;;56.73;22.85;;;;;;;0.10;81.12;100982.83;1780319;77;26277;-70
2020/12/01 07:07:04;;;;;;;53.78;21.65;;;;;;;0.12;81.12;100982.84;1800192;77;26601;-71
2020/12/01 07:09:42;;;;;;;54.67;22.13;;;;;;;0.16;81.12;100984.61;1779335;78;27609;-69
2020/12/01 07:12:28;;;;;;;56.37;22.93;;;;;;;0.18;81.09;100983.74;1781423;77;25787;-70
2020/12/01 07:15:07;;;;;;;58.63;23.15;;;;;;;0.20;81.11;100982.00;1786479;77;25746;-70
2020/12/01 07:17:49;;;;;;;52.80;22.07;;;;;;;0.24;81.10;100985.09;1787770;78;26348;-71
2020/12/01 07:20:46;;;;;;;55.12;21.50;;;;;;;0.30;81.13;100988.19;1792707;77;25728;-69
2020/12/01 07:23:34;;;;;;;53.35;22.45;;;;;;;0.36;81.13;100982.05;1786227;77;28517;-70
2020/12/01 07:26:22;;;;;;;61.23;25.97;;;;;;;0.40;81.12;100979.44;1748455;78;25833;-70
2020/12/01 07:28:58;;;;;;;91.25;33.95;;;;;;;0.45;81.10;100984.28;1793138;77;25869;-69
2020/12/01 07:31:37;;;;;;;105.80;39.25;;;;;;;0.49;81.08;100985.17;1786844;77;25903;-70
2020/12/01 07:34:24;;;;;;;64.72;27.27;;;;;;;0.54;81.13;100993.55;1785066;77;25877;-69
2020/12/01 07:37:00;;;;;;;58.90;23.75;;;;;;;0.60;81.12;100987.41;1800939;77;28485;-71
2020/12/01 07:39:29;;;;;;;45.20;20.45;;;;;;;0.63;81.08;100990.05;1765127;77;26002;-71
2020/12/01 07:42:02;;;;;;;62.78;26.07;;;;;;;0.65;81.06;100986.98;1796618;78;25922;-70
2020/12/01 07:44:43;;;;;;;62.65;25.37;;;;;;;0.67;81.05;100992.26;1792227;77;26162;-65
2020/12/01 07:47:19;;;;;;;58.02;24.90;;;;;;;0.73;81.05;100993.16;1791335;77;25721;-65
2020/12/01 07:50:05;;;;;;;60.67;26.20;;;;;;;0.78;81.05;100996.68;1789841;78;28131;-67
2020/12/01 07:52:47;;;;;;;54.25;23.22;;;;;;;0.83;81.03;100999.33;1791443;78;25792;-66
2020/12/01 07:55:35;;;;;;;53.78;23.32;;;;;;;0.87;81.00;101005.94;1798084;77;26748;-64
2020/12/01 07:58:17;;;;;;;54.40;24.32;;;;;;;0.90;81.00;101003.30;1791246;78;26824;-65
2020/12/01 08:00:54;;;;;;;51.20;22.48;;;;;;;0.93;80.96;101004.62;1809488;76;25792;-65
2020/12/01 08:03:31;;;;;;;60.73;24.20;;;;;;;0.97;80.98;101009.03;1795818;76;27545;-64
2020/12/01 08:06:13;;;;;;;62.62;24.43;;;;;;;1.03;80.96;101008.59;1795949;77;26542;-64
2020/12/01 08:08:43;;;;;;;;;;;;;;;1.05;80.91;101011.68;1807072;78;25819;-64
2020/12/01 08:11:16;;;;;;;66.85;25.20;;;;;;;1.11;80.93;101018.73;1801098;76;25881;-63
2020/12/01 08:13:49;;;;;;;62.05;24.20;;;;;;;1.11;80.91;101011.69;1799005;76;25913;-66
2020/12/01 08:16:24;;;;;;;52.93;21.65;;;;;;;1.13;80.89;101013.89;1805526;76;27593;-65
2020/12/01 08:18:53;;;;;;;44.10;20.70;;;;;;;1.17;80.89;101013.45;1814584;76;25780;-64
2020/12/01 08:21:29;;;;;;;55.23;21.50;;;;;;;1.20;80.86;101015.66;1802289;76;25731;-64
2020/12/01 08:24:01;;;;;;;44.55;19.02;;;;;;;1.23;80.84;101016.98;1839283;76;26256;-64
2020/12/01 08:26:36;;;;;;;45.05;20.55;;;;;;;1.27;80.80;101017.86;1782821;77;25859;-64
2020/12/01 08:29:28;;;;;;;42.83;19.45;;;;;;;1.32;80.82;101017.86;1836974;76;27986;-65
2020/12/01 08:32:17;;;;;;;45.45;19.95;;;;;;;1.38;80.83;101009.94;1840026;75;26119;-65
2020/12/01 08:35:04;;;;;;;41.25;19.67;;;;;;;1.42;80.78;101012.58;1840475;75;25843;-73
2020/12/01 08:38:02;;;;;;;66.28;26.55;;;;;;;1.44;80.70;101002.89;1824277;75;26334;-74
2020/12/01 08:41:18;;;;;;;56.58;22.13;;;;;;;1.47;80.65;101005.53;1822192;75;25952;-74
2020/12/01 08:43:52;;;;;;;50.98;20.65;;;;;;;1.52;80.72;101010.37;1835510;75;28397;-72
2020/12/01 08:46:29;;;;;;;45.40;18.62;;;;;;;1.56;80.66;101010.81;1846343;75;25755;-74
2020/12/01 08:49:22;;;;;;;53.10;22.07;;;;;;;1.60;80.62;101013.89;1791058;78;26513;-73
2020/12/01 08:51:57;;;;;;;37.08;18.42;;;;;;;1.61;80.62;101013.01;1797759;76;26463;-73
2020/12/01 08:54:35;;;;;;;47.23;22.77;;;;;;;1.64;80.58;101017.41;1805807;75;25831;-74
2020/12/01 08:57:16;;;;;;;47.53;19.90;;;;;;;1.67;80.53;101023.13;1800492;76;27969;-73
2020/12/01 08:59:54;;;;;;;58.75;22.52;;;;;;;1.67;80.54;101019.17;1795952;78;26175;-74
2020/12/01 09:02:23;;;;;;;47.05;20.65;;;;;;;1.79;80.55;101030.60;1793398;76;26080;-74
2020/12/01 09:05:00;;;;;;;47.33;20.68;;;;;;;1.87;80.54;101025.30;1831493;76;25820;-73
2020/12/01 09:07:37;;;;;;;52.05;21.00;;;;;;;1.92;80.48;101029.70;1831315;75;26071;-72
2020/12/01 09:10:17;;;;;;;45.48;19.50;;;;;;;1.95;80.43;101032.34;1834709;76;25820;-73
2020/12/01 09:12:50;;;;;;;40.60;20.00;;;;;;;2.00;80.36;101036.29;1816157;76;26501;-73
2020/12/01 09:18:31;;;;;;;48.80;20.88;;;;;;;2.07;80.31;101038.03;1827986;76;25853;-73
2020/12/01 09:23:38;;;;;;;51.13;19.50;;;;;;;2.18;80.24;101037.56;1828779;75;27755;-72
2020/12/01 09:26:27;;;;;;;50.63;21.85;;;;;;;2.20;80.20;101042.41;1826372;75;35063;-73
2020/12/01 09:28:55;;;;;;;49.33;21.40;;;;;;;2.14;80.09;101028.33;1802448;78;26084;-74
2020/12/01 09:31:26;;;;;;;46.88;21.50;;;;;;;2.20;80.10;101035.80;1799025;76;26240;-72
2020/12/01 09:33:55;;;;;;;52.08;21.90;;;;;;;2.22;80.08;101034.47;1799461;76;26065;-73
2020/12/01 09:36:24;;;;;;;47.70;22.58;;;;;;;2.24;80.06;101036.67;1801883;76;27445;-72
2020/12/01 09:38:54;;;;;;;42.65;20.85;;;;;;;2.21;79.96;101034.91;1797788;78;25938;-72
2020/12/01 09:41:25;;;;;;;45.10;20.20;;;;;;;2.23;79.98;101036.23;1806268;76;25906;-71
2020/12/01 09:44:05;;;;;;;45.25;19.40;;;;;;;2.30;79.98;101039.30;1797986;77;26182;-71
2020/12/01 09:46:38;;;;;;;45.50;20.20;;;;;;;2.36;79.96;101041.04;1815035;76;25911;-70
2020/12/01 09:49:02;;;;;;;50.25;22.02;;;;;;;2.40;79.91;101041.02;1800096;78;27877;-73
2020/12/01 09:51:31;;;;;;;54.73;22.55;;;;;;;2.40;79.80;101041.46;1827686;76;25776;-71
2020/12/01 09:57:03;;;;;;;62.85;24.32;;;;;;;2.46;79.79;101042.32;1799805;76;26483;-70
2020/12/01 10:10:02;;;;;;;51.45;22.48;;;;;;;2.54;79.58;101029.94;1791972;78;26051;-73
2020/12/01 10:12:28;;;;;;;45.35;20.70;;;;;;;2.60;79.52;101039.62;1756676;78;25776;-72
2020/12/01 10:31:50;;;;;;;79.22;21.97;;;;;;;3.02;79.30;101036.27;1747337;79;25834;-70
2020/12/01 10:36:06;;;;;;;47.80;21.35;;;;;;;3.11;79.17;101035.77;1765881;78;25755;-70
2020/12/01 10:38:34;;;;;;;47.98;19.98;;;;;;;3.19;79.17;101039.24;1779955;79;25932;-71
2020/12/01 10:41:01;;;;;;;46.95;21.90;;;;;;;3.25;79.08;101036.99;1766848;79;27808;-70
2020/12/01 10:43:29;;;;;;;49.33;22.35;;;;;;;3.29;78.95;101041.83;1735689;79;26462;-72
2020/12/01 10:45:57;;;;;;;47.33;20.55;;;;;;;3.30;78.92;101041.81;1767308;78;25896;-71
2020/12/01 10:48:24;;;;;;;46.65;21.20;;;;;;;3.39;78.98;101043.07;1785005;78;26025;-71
2020/12/01 10:50:52;;;;;;;48.87;21.82;;;;;;;3.41;78.81;101041.28;1782848;78;25839;-73
2020/12/01 10:53:20;;;;;;;51.75;21.40;;;;;;;3.48;78.86;101044.77;1778722;78;27754;-72
2020/12/01 10:55:48;;;;;;;45.80;20.72;;;;;;;3.55;78.80;101043.37;1778528;78;25829;-72
2020/12/01 10:58:15;;;;;;;49.18;20.02;;;;;;;3.61;78.68;101042.45;1777224;78;25853;-71
2020/12/01 11:00:43;;;;;;;49.10;20.35;;;;;;;3.65;78.63;101049.48;1770548;78;26946;-72
2020/12/01 11:03:11;;;;;;;49.08;21.42;;;;;;;3.68;78.57;101050.78;1776619;78;25824;-71
2020/12/01 11:05:38;;;;;;;49.83;21.93;;;;;;;3.73;78.54;101060.90;1778664;79;27642;-71
2020/12/01 11:08:07;;;;;;;49.23;21.33;;;;;;;3.77;78.47;101054.67;1783016;78;25813;-72
2020/12/01 11:10:35;;;;;;;51.40;21.62;;;;;;;3.77;78.34;101059.10;1782833;79;25843;-72
2020/12/01 11:13:03;;;;;;;49.45;22.13;;;;;;;3.80;78.38;101053.77;1787806;77;26326;-71
2020/12/01 11:15:31;;;;;;;57.85;22.80;;;;;;;3.87;78.40;101063.42;1794563;77;25744;-71
2020/12/01 11:17:59;;;;;;;56.10;23.57;;;;;;;3.88;78.25;101062.09;1780357;78;27954;-71
2020/12/01 11:20:27;;;;;;;47.62;21.23;;;;;;;3.82;78.05;101062.59;1797541;77;25884;-70
2020/12/01 11:22:54;;;;;;;57.25;25.57;;;;;;;3.86;78.10;101065.65;1793812;78;26331;-70
2020/12/01 11:25:22;;;;;;;59.13;24.85;;;;;;;3.86;77.99;101069.62;1792404;77;26088;-70
2020/12/01 11:27:50;;;;;;;46.90;21.10;;;;;;;3.87;77.97;101071.37;1794416;78;25865;-71
2020/12/01 11:30:21;;;;;;;47.13;20.82;;;;;;;3.86;77.91;101074.48;1783364;78;28266;-71
2020/12/01 11:32:48;;;;;;;44.77;22.00;;;;;;;3.84;77.85;101081.56;1780852;78;30899;-72
2020/12/01 11:35:21;;;;;;;46.58;20.02;;;;;;;3.88;77.70;101072.70;1771989;78;25778;-70
2020/12/01 11:37:50;;;;;;;48.00;20.15;;;;;;;3.83;77.61;101073.19;1752472;79;26201;-70
2020/12/01 11:40:18;;;;;;;41.77;19.42;;;;;;;3.81;77.58;101078.06;1778879;78;25766;-70
2020/12/01 11:42:47;;;;;;;39.48;18.57;;;;;;;3.77;77.45;101077.22;1749807;79;27963;-71
2020/12/01 11:45:15;;;;;;;53.68;19.30;;;;;;;3.79;77.44;101083.38;1744970;79;25828;-71
2020/12/01 11:47:43;;;;;;;43.85;19.00;;;;;;;3.81;77.37;101084.25;1753644;79;25728;-72
2020/12/01 11:50:13;;;;;;;37.05;18.65;;;;;;;3.78;77.27;101085.59;1771506;78;44645;-72
2020/12/01 11:52:41;;;;;;;47.88;19.25;;;;;;;3.75;77.23;101086.07;1773970;79;25761;-71
2020/12/01 11:55:09;;;;;;;48.02;19.90;;;;;;;3.75;77.19;101092.25;1773889;78;27316;-73
2020/12/01 11:57:36;;;;;;;41.75;19.57;;;;;;;3.76;77.16;101083.41;1768746;78;25785;-70
2020/12/01 12:00:08;;;;;;;41.25;18.48;;;;;;;3.78;77.09;101082.06;1757659;78;25739;-71
2020/12/01 12:02:37;;;;;;;40.88;18.32;;;;;;;3.76;76.95;101079.88;1775294;78;25902;-71
2020/12/01 12:05:04;;;;;;;48.40;19.52;;;;;;;3.66;76.83;101080.40;1773229;78;25935;-71
2020/12/01 12:07:32;;;;;;;39.63;18.85;;;;;;;3.67;76.88;101082.16;1760670;79;27819;-70
2020/12/01 12:10:00;;;;;;;39.65;19.85;;;;;;;3.68;76.83;101077.73;1772197;78;25795;-70
2020/12/01 12:12:28;;;;;;;42.78;18.27;;;;;;;3.65;76.64;101079.97;1726186;80;25501;-70
2020/12/01 12:14:55;;;;;;;41.45;17.82;;;;;;;3.64;76.67;101082.62;1764526;79;26255;-70
2020/12/01 12:17:23;;;;;;;40.17;17.27;;;;;;;3.64;76.58;101083.52;1772604;78;25792;-70
2020/12/01 12:19:51;;;;;;;43.60;18.98;;;;;;;3.59;76.49;101084.87;1729821;81;27747;-70
2020/12/01 12:22:22;;;;;;;43.87;17.90;;;;;;;3.57;76.45;101084.45;1751894;79;26600;-70
2020/12/01 12:24:50;;;;;;;43.15;19.80;;;;;;;3.54;76.38;101084.03;1723487;81;25921;-70
2020/12/01 12:27:17;;;;;;;41.50;17.37;;;;;;;3.53;76.34;101086.24;1737488;80;26076;-70